Time;durP1;ratioP1;P1;durP2;ratioP2;P2;SDS_P1;SDS_P2;PMS_P1;PMS_P2;Temp;Humidity;BMP_temperature;BMP_pressure;BME280_temperature;BME280_humidity;BME280_pressure;Samples;Min_cycle;Max_cycle;Signal;HPM_P1;HPM_P2
2022/03/15 00:00:57;;;;;;;122.03;17.17;;;-0.30;99.90;;;;;;5010823;28;20034;-59
2022/03/15 00:03:22;;;;;;;235.68;21.35;;;-0.10;99.90;;;;;;5007558;28;20388;-59
2022/03/15 00:05:49;;;;;;;304.08;25.52;;;-0.10;99.90;;;;;;5007024;28;20080;-59
2022/03/15 00:08:17;;;;;;;328.70;23.42;;;-0.10;99.90;;;;;;5009934;28;20038;-56
2022/03/15 00:10:43;;;;;;;348.55;22.08;;;-0.10;99.90;;;;;;5007438;28;20572;-58
2022/03/15 00:13:09;;;;;;;363.08;20.83;;;-0.10;99.90;;;;;;5010153;28;20397;-56
2022/03/15 00:15:36;;;;;;;246.75;19.48;;;-0.20;99.90;;;;;;5008745;28;20030;-57
2022/03/15 00:18:02;;;;;;;176.77;20.65;;;-0.20;99.90;;;;;;5010100;28;20034;-59
2022/03/15 00:20:28;;;;;;;187.40;18.70;;;-0.20;99.90;;;;;;5009599;28;20018;-59
2022/03/15 00:22:57;;;;;;;314.75;24.48;;;-0.10;99.90;;;;;;5008897;28;20739;-57
2022/03/15 00:25:23;;;;;;;280.13;24.33;;;-0.10;99.90;;;;;;5009527;28;20113;-58
2022/03/15 00:27:53;;;;;;;182.38;19.85;;;-0.10;99.90;;;;;;5008581;28;20030;-58
2022/03/15 00:30:20;;;;;;;134.43;21.17;;;-0.10;99.90;;;;;;5009747;28;20029;-57
2022/03/15 00:32:46;;;;;;;148.30;21.45;;;-0.10;99.90;;;;;;5009626;28;20092;-58
2022/03/15 00:35:22;;;;;;;198.50;23.48;;;-0.10;99.90;;;;;;5008814;28;20026;-58
2022/03/15 00:37:50;;;;;;;222.15;22.40;;;-0.10;99.90;;;;;;5009227;28;20084;-56
2022/03/15 00:40:17;;;;;;;246.05;17.55;;;-0.10;99.90;;;;;;5010154;28;20110;-57
2022/03/15 00:42:50;;;;;;;145.75;14.27;;;-0.10;99.90;;;;;;5009057;28;20026;-57
2022/03/15 00:45:16;;;;;;;180.43;13.80;;;-0.10;99.90;;;;;;5009433;28;20030;-57
2022/03/15 00:47:41;;;;;;;146.63;14.55;;;-0.20;99.90;;;;;;5010242;28;20029;-56
2022/03/15 00:50:08;;;;;;;186.27;16.25;;;-0.20;99.90;;;;;;5008646;28;20500;-57
2022/03/15 00:52:33;;;;;;;80.82;12.82;;;-0.20;99.90;;;;;;5009541;28;20117;-55
2022/03/15 00:55:00;;;;;;;111.82;13.48;;;-0.30;99.90;;;;;;5009234;28;20109;-59
2022/03/15 00:57:25;;;;;;;188.75;16.90;;;-0.30;99.90;;;;;;5009423;28;20029;-58
2022/03/15 00:59:51;;;;;;;120.25;14.23;;;-0.30;99.90;;;;;;5008859;28;20083;-58
2022/03/15 01:02:17;;;;;;;178.02;15.93;;;-0.40;99.90;;;;;;5008780;28;20022;-59
2022/03/15 01:04:43;;;;;;;101.28;13.70;;;-0.40;99.90;;;;;;5008115;28;20041;-58
2022/03/15 01:07:11;;;;;;;97.93;15.68;;;-0.40;99.90;;;;;;5008782;28;20029;-56
2022/03/15 01:09:38;;;;;;;124.95;15.95;;;-0.40;99.90;;;;;;5008778;28;20018;-57
2022/03/15 01:12:04;;;;;;;134.80;15.82;;;-0.40;99.90;;;;;;5008531;28;20053;-59
2022/03/15 01:14:29;;;;;;;109.30;14.73;;;-0.30;99.90;;;;;;5009880;28;20492;-60
2022/03/15 01:16:55;;;;;;;145.73;15.30;;;-0.30;99.90;;;;;;5008041;28;20066;-56
2022/03/15 01:19:25;;;;;;;175.32;17.10;;;-0.30;99.90;;;;;;5009316;28;20022;-58
2022/03/15 01:21:52;;;;;;;128.60;13.68;;;-0.30;99.90;;;;;;5007175;28;20026;-57
2022/03/15 01:24:18;;;;;;;80.13;17.55;;;-0.40;99.90;;;;;;5008464;28;20024;-59
2022/03/15 01:26:44;;;;;;;103.57;15.05;;;-0.40;99.90;;;;;;5010017;28;20403;-59
2022/03/15 01:29:10;;;;;;;102.40;23.80;;;-0.40;99.90;;;;;;5008105;28;20030;-59
2022/03/15 01:31:36;;;;;;;103.93;15.70;;;-0.50;99.90;;;;;;5008595;28;20056;-56
2022/03/15 01:34:02;;;;;;;34.90;13.85;;;-0.50;99.90;;;;;;5008215;28;20088;-59
2022/03/15 01:36:27;;;;;;;76.70;13.07;;;-0.60;99.90;;;;;;5008575;28;20444;-60
2022/03/15 01:38:53;;;;;;;71.78;13.32;;;-0.60;99.90;;;;;;5008747;28;20029;-57
2022/03/15 01:41:22;;;;;;;45.35;14.48;;;-0.70;99.90;;;;;;5008951;28;20030;-58
2022/03/15 01:43:48;;;;;;;48.35;14.68;;;-0.70;99.90;;;;;;5008976;28;20037;-56
2022/03/15 01:46:14;;;;;;;50.28;13.85;;;-0.80;99.90;;;;;;5008212;28;20030;-56
2022/03/15 01:48:40;;;;;;;76.22;14.68;;;-0.80;99.90;;;;;;5008719;28;20053;-57
2022/03/15 01:51:07;;;;;;;58.88;13.60;;;-0.70;99.90;;;;;;5007856;28;20030;-59
2022/03/15 01:53:33;;;;;;;93.55;15.68;;;-0.70;99.90;;;;;;5008973;28;20093;-60
2022/03/15 01:56:02;;;;;;;107.20;16.48;;;-0.70;99.90;;;;;;5007885;28;20044;-58
2022/03/15 01:58:28;;;;;;;89.60;15.13;;;-0.60;99.90;;;;;;5008068;28;20120;-57
2022/03/15 02:00:54;;;;;;;66.50;14.80;;;-0.60;99.90;;;;;;5007838;28;20048;-58
2022/03/15 02:03:19;;;;;;;75.78;15.02;;;-0.60;99.90;;;;;;5007523;28;20026;-56
2022/03/15 02:05:45;;;;;;;61.38;13.65;;;-0.60;99.90;;;;;;5008939;28;20049;-58
2022/03/15 02:08:14;;;;;;;66.55;14.38;;;-0.60;99.90;;;;;;5006779;28;20044;-58
2022/03/15 02:10:41;;;;;;;33.92;12.70;;;-0.60;99.90;;;;;;5008302;28;20507;-56
2022/03/15 02:13:07;;;;;;;37.78;12.70;;;-0.60;99.90;;;;;;5007295;28;20033;-57
2022/03/15 02:15:33;;;;;;;36.22;12.23;;;-0.60;99.90;;;;;;5006856;28;20022;-59
2022/03/15 02:17:59;;;;;;;28.95;13.93;;;-0.70;99.90;;;;;;5008258;28;20038;-57
2022/03/15 02:20:26;;;;;;;30.13;13.02;;;-0.70;99.90;;;;;;5007804;28;20033;-58
2022/03/15 02:22:51;;;;;;;16.98;10.88;;;-0.80;99.90;;;;;;5008159;28;20022;-60
2022/03/15 02:25:17;;;;;;;19.55;13.25;;;-0.80;99.90;;;;;;5007612;28;20030;-56
2022/03/15 02:27:43;;;;;;;103.20;12.75;;;-0.80;99.90;;;;;;5006257;28;20033;-56
2022/03/15 02:30:09;;;;;;;15.88;12.05;;;-0.80;99.90;;;;;;5007568;28;20511;-56
2022/03/15 02:32:35;;;;;;;59.83;15.00;;;-0.80;99.90;;;;;;5008143;28;20057;-56
2022/03/15 02:35:02;;;;;;;105.60;16.02;;;-0.80;99.90;;;;;;5008689;28;20022;-58
2022/03/15 02:37:28;;;;;;;271.77;18.40;;;-0.80;99.90;;;;;;5007516;28;20533;-57
2022/03/15 02:39:54;;;;;;;98.07;13.75;;;-0.80;99.90;;;;;;5008373;28;20029;-59
2022/03/15 02:42:19;;;;;;;66.70;14.23;;;-0.80;99.90;;;;;;5007087;28;20026;-57
2022/03/15 02:44:45;;;;;;;216.40;16.58;;;-0.90;99.90;;;;;;5008637;28;20497;-58
2022/03/15 02:47:12;;;;;;;71.50;11.70;;;-0.90;99.90;;;;;;5008145;28;20046;-57
2022/03/15 02:49:38;;;;;;;102.22;15.25;;;-0.90;99.90;;;;;;5008434;28;20026;-55
2022/03/15 02:52:04;;;;;;;86.07;13.80;;;-0.90;99.90;;;;;;5007673;28;20073;-56
2022/03/15 02:54:30;;;;;;;54.60;10.50;;;-0.90;99.90;;;;;;4987904;28;20101;-55
2022/03/15 02:56:55;;;;;;;10.43;9.45;;;-1.00;99.90;;;;;;5008013;28;20029;-56
2022/03/15 02:59:21;;;;;;;21.73;10.45;;;-1.00;99.90;;;;;;5007952;28;20393;-56
2022/03/15 03:01:48;;;;;;;47.13;12.15;;;-1.00;99.90;;;;;;5007963;28;20382;-59
2022/03/15 03:04:14;;;;;;;77.47;12.98;;;-1.00;99.90;;;;;;5004901;28;20125;-57
2022/03/15 03:06:43;;;;;;;130.07;14.20;;;-1.00;99.90;;;;;;5007688;28;20448;-56
2022/03/15 03:09:11;;;;;;;128.55;15.38;;;-1.00;99.90;;;;;;5010435;28;20281;-58
2022/03/15 03:11:37;;;;;;;94.00;14.15;;;-1.10;99.90;;;;;;4992769;28;20080;-58
2022/03/15 03:14:04;;;;;;;38.22;12.25;;;-1.10;99.90;;;;;;5011021;28;20042;-57
2022/03/15 03:16:30;;;;;;;91.30;12.80;;;-1.10;99.90;;;;;;5025583;28;20030;-57
2022/03/15 03:18:59;;;;;;;62.38;13.65;;;-1.10;99.90;;;;;;5011153;28;20034;-57
2022/03/15 03:21:28;;;;;;;181.70;17.10;;;-1.10;99.90;;;;;;5010161;28;20034;-57
2022/03/15 03:23:55;;;;;;;69.15;15.18;;;-1.10;99.90;;;;;;5010989;28;20084;-57
2022/03/15 03:26:22;;;;;;;116.22;15.38;;;-1.00;99.90;;;;;;5011389;28;20033;-57
2022/03/15 03:28:48;;;;;;;95.32;15.38;;;-1.00;99.90;;;;;;5011245;28;20026;-58
2022/03/15 03:31:14;;;;;;;51.28;13.63;;;-1.00;99.90;;;;;;5010782;28;20096;-57
2022/03/15 03:33:40;;;;;;;121.45;14.60;;;-0.90;99.90;;;;;;5010698;28;20034;-59
2022/03/15 03:36:06;;;;;;;67.82;14.13;;;-0.90;99.90;;;;;;5010390;28;20029;-55
2022/03/15 03:38:33;;;;;;;90.68;15.98;;;-0.90;99.90;;;;;;5010347;28;20030;-57
2022/03/15 03:40:58;;;;;;;62.85;13.15;;;-0.90;99.90;;;;;;5010957;28;20088;-57
2022/03/15 03:43:25;;;;;;;54.33;12.27;;;-0.90;99.90;;;;;;5010081;28;20034;-57
2022/03/15 03:45:50;;;;;;;27.90;11.70;;;-0.90;99.90;;;;;;5010661;28;20029;-56
2022/03/15 03:48:16;;;;;;;60.58;11.95;;;-1.00;99.90;;;;;;5010464;28;20555;-60
2022/03/15 03:50:42;;;;;;;37.88;10.82;;;-1.00;99.90;;;;;;5010923;28;20465;-56
2022/03/15 03:53:09;;;;;;;31.20;11.23;;;-1.00;99.90;;;;;;5008879;28;20034;-58
2022/03/15 03:55:36;;;;;;;27.02;10.85;;;-1.00;99.90;;;;;;5010219;28;20038;-57
2022/03/15 03:58:02;;;;;;;60.95;12.43;;;-1.00;99.90;;;;;;5010702;28;20052;-57
2022/03/15 04:00:28;;;;;;;31.65;11.85;;;-1.00;99.90;;;;;;5009858;28;20026;-56
2022/03/15 04:02:57;;;;;;;27.73;12.18;;;-1.00;99.90;;;;;;5009154;28;20080;-59
2022/03/15 04:05:23;;;;;;;30.77;12.20;;;-1.00;99.90;;;;;;5010327;28;20129;-60
2022/03/15 04:07:49;;;;;;;80.28;13.82;;;-1.00;99.90;;;;;;5009649;28;20452;-56
2022/03/15 04:10:18;;;;;;;67.78;14.20;;;-1.00;99.90;;;;;;5010561;28;20096;-57
2022/03/15 04:12:45;;;;;;;48.38;14.07;;;-1.00;99.90;;;;;;5009699;28;20049;-56
2022/03/15 04:15:12;;;;;;;37.00;11.77;;;-1.00;99.90;;;;;;5009194;28;20026;-57
2022/03/15 04:17:38;;;;;;;17.90;12.45;;;-1.00;99.90;;;;;;5009804;28;20037;-57
2022/03/15 04:20:05;;;;;;;21.98;13.48;;;-1.00;99.90;;;;;;5010255;28;20057;-58
2022/03/15 04:22:31;;;;;;;14.63;11.65;;;-1.00;99.90;;;;;;5009128;28;20457;-58
2022/03/15 04:24:57;;;;;;;24.27;13.13;;;-1.10;99.90;;;;;;5009844;28;20117;-57
2022/03/15 04:27:23;;;;;;;17.17;11.85;;;-1.00;99.90;;;;;;5010018;28;20041;-59
2022/03/15 04:29:49;;;;;;;57.92;15.60;;;-1.10;99.90;;;;;;5009996;28;20400;-59
2022/03/15 04:32:15;;;;;;;111.45;15.38;;;-1.10;99.90;;;;;;5009839;28;20042;-55
2022/03/15 04:34:40;;;;;;;41.10;12.20;;;-1.10;99.90;;;;;;5008872;28;20037;-54
2022/03/15 04:37:06;;;;;;;64.20;12.82;;;-1.10;99.90;;;;;;5009556;28;20127;-55
2022/03/15 04:39:33;;;;;;;77.95;13.98;;;-1.20;99.90;;;;;;5008820;28;20473;-56
2022/03/15 04:41:59;;;;;;;127.03;16.48;;;-1.20;99.90;;;;;;5008407;28;20046;-55
2022/03/15 04:44:24;;;;;;;115.43;14.95;;;-1.20;99.90;;;;;;5009834;28;20097;-56
2022/03/15 04:46:50;;;;;;;114.97;15.63;;;-1.20;99.90;;;;;;5009182;28;20565;-55
2022/03/15 04:49:16;;;;;;;145.13;16.55;;;-1.20;99.90;;;;;;5008983;28;20080;-53
2022/03/15 04:51:42;;;;;;;114.35;15.65;;;-1.30;99.90;;;;;;5007953;28;20042;-54
2022/03/15 04:54:08;;;;;;;111.78;15.70;;;-1.20;99.90;;;;;;5009929;28;20022;-54
2022/03/15 04:56:34;;;;;;;208.10;18.38;;;-1.20;99.90;;;;;;5009630;28;20081;-56
2022/03/15 04:59:00;;;;;;;174.70;19.92;;;-1.20;99.90;;;;;;5009624;28;20042;-56
2022/03/15 05:01:25;;;;;;;117.60;16.58;;;-1.20;99.90;;;;;;5008820;28;20232;-55
2022/03/15 05:03:51;;;;;;;83.50;15.90;;;-1.20;99.90;;;;;;5009038;28;20022;-55
2022/03/15 05:06:16;;;;;;;131.45;17.25;;;-1.20;99.90;;;;;;5009841;28;20070;-54
2022/03/15 05:08:42;;;;;;;165.80;16.98;;;-1.20;99.90;;;;;;4981532;28;20050;-55
2022/03/15 05:11:08;;;;;;;142.13;17.77;;;-1.20;99.90;;;;;;5009549;28;20062;-54
2022/03/15 05:13:40;;;;;;;136.77;17.13;;;-1.10;99.90;;;;;;5008423;28;20026;-55
2022/03/15 05:16:07;;;;;;;73.93;14.90;;;-1.10;99.90;;;;;;5008999;28;20026;-56
2022/03/15 05:18:34;;;;;;;109.10;16.33;;;-1.10;99.90;;;;;;5008250;28;20022;-55
2022/03/15 05:21:01;;;;;;;228.20;21.25;;;-1.00;99.90;;;;;;5009481;28;20079;-55
2022/03/15 05:23:27;;;;;;;29.77;14.95;;;-1.00;99.90;;;;;;5010043;28;20552;-55
2022/03/15 05:25:53;;;;;;;29.15;15.32;;;-1.00;99.90;;;;;;5007176;28;20117;-54
2022/03/15 05:28:19;;;;;;;21.80;14.27;;;-1.00;99.90;;;;;;5008944;28;20053;-55
2022/03/15 05:30:44;;;;;;;20.95;13.68;;;-1.00;99.90;;;;;;5008257;28;20022;-56
2022/03/15 05:33:10;;;;;;;39.80;19.70;;;-1.00;99.90;;;;;;5008613;28;20461;-55
2022/03/15 05:35:35;;;;;;;31.60;18.10;;;-1.00;99.90;;;;;;5010660;28;20506;-54
2022/03/15 05:38:01;;;;;;;30.48;17.73;;;-1.00;99.90;;;;;;5008704;28;20038;-54
2022/03/15 05:40:27;;;;;;;25.73;15.85;;;-0.90;99.90;;;;;;5009003;28;20037;-54
2022/03/15 05:42:53;;;;;;;20.58;14.10;;;-0.80;99.90;;;;;;5008354;28;20368;-55
2022/03/15 05:45:18;;;;;;;26.65;14.65;;;-0.80;99.90;;;;;;5009116;28;20108;-56
2022/03/15 05:47:44;;;;;;;21.77;13.48;;;-0.70;99.90;;;;;;5008576;28;20026;-57
2022/03/15 05:50:10;;;;;;;20.25;14.18;;;-0.70;99.90;;;;;;5008982;28;20045;-56
2022/03/15 05:52:35;;;;;;;19.95;14.85;;;-0.70;99.90;;;;;;5008132;28;20026;-54
2022/03/15 05:55:01;;;;;;;21.33;13.65;;;-0.60;99.90;;;;;;5023630;28;20030;-56
2022/03/15 05:57:27;;;;;;;25.88;20.13;;;-0.60;99.90;;;;;;5008976;28;20026;-56
2022/03/15 05:59:52;;;;;;;20.58;13.32;;;-0.50;99.90;;;;;;5007980;28;20034;-56
2022/03/15 06:02:18;;;;;;;20.73;13.48;;;-0.40;99.90;;;;;;4991889;28;20463;-55
2022/03/15 06:04:43;;;;;;;17.88;11.93;;;-0.40;99.90;;;;;;5006797;28;20453;-55
2022/03/15 06:07:10;;;;;;;18.08;13.85;;;-0.30;99.90;;;;;;5008356;28;20421;-56
2022/03/15 06:09:35;;;;;;;16.80;13.00;;;-0.30;99.90;;;;;;5007315;28;20465;-56
2022/03/15 06:12:03;;;;;;;17.60;12.43;;;-0.20;99.90;;;;;;5006569;28;20049;-55
2022/03/15 06:14:28;;;;;;;23.15;16.70;;;-0.20;99.90;;;;;;5006368;28;20037;-56
2022/03/15 06:16:54;;;;;;;19.73;12.32;;;-0.20;99.90;;;;;;5007614;28;20381;-54
2022/03/15 06:19:20;;;;;;;18.58;12.57;;;-0.10;99.90;;;;;;5008235;28;20026;-56
2022/03/15 06:21:45;;;;;;;14.60;11.98;;;-0.10;99.90;;;;;;5007373;28;20050;-56
2022/03/15 06:24:11;;;;;;;17.63;14.18;;;0.00;99.90;;;;;;5008375;28;20548;-56
2022/03/15 06:26:38;;;;;;;14.48;12.35;;;0.00;99.90;;;;;;5008198;28;20026;-55
2022/03/15 06:29:05;;;;;;;25.10;13.05;;;0.00;99.90;;;;;;5008276;28;20038;-56
2022/03/15 06:31:33;;;;;;;16.48;12.48;;;0.10;99.90;;;;;;5007012;28;20033;-55
2022/03/15 06:33:59;;;;;;;17.45;14.55;;;0.20;99.90;;;;;;5008925;28;20825;-56
2022/03/15 06:36:25;;;;;;;14.52;11.85;;;0.30;99.90;;;;;;5007705;28;20026;-55
2022/03/15 06:38:53;;;;;;;12.27;10.93;;;0.40;99.90;;;;;;5007653;28;20030;-55
2022/03/15 06:41:19;;;;;;;13.95;11.55;;;0.50;99.90;;;;;;5008587;28;20058;-56
2022/03/15 06:43:45;;;;;;;13.32;11.05;;;0.60;99.90;;;;;;5010474;28;20046;-54
2022/03/15 06:46:10;;;;;;;9.95;8.95;;;0.70;99.90;;;;;;5011844;28;20038;-57
2022/03/15 06:48:36;;;;;;;12.85;9.68;;;0.90;99.90;;;;;;5011831;28;20501;-55
2022/03/15 06:51:03;;;;;;;15.68;11.10;;;1.00;99.90;;;;;;5012426;28;20026;-55
2022/03/15 06:53:29;;;;;;;15.13;12.35;;;1.10;99.90;;;;;;5012196;28;20476;-55
2022/03/15 06:55:55;;;;;;;12.25;9.90;;;1.00;99.90;;;;;;5011762;28;20045;-54
2022/03/15 06:58:21;;;;;;;12.98;11.50;;;1.00;99.90;;;;;;5012033;28;20022;-54
2022/03/15 07:00:47;;;;;;;13.10;10.45;;;1.00;99.90;;;;;;5011157;28;20040;-55
2022/03/15 07:03:14;;;;;;;10.90;8.82;;;1.10;99.90;;;;;;5011805;28;20447;-56
2022/03/15 07:05:40;;;;;;;10.93;9.55;;;1.20;99.90;;;;;;5012113;28;20066;-56
2022/03/15 07:08:06;;;;;;;11.27;9.35;;;1.20;99.90;;;;;;5011847;28;20758;-57
2022/03/15 07:10:32;;;;;;;16.83;10.90;;;1.40;99.90;;;;;;5009651;28;20081;-55
2022/03/15 07:12:58;;;;;;;10.85;9.50;;;1.50;99.90;;;;;;5010286;28;20042;-55
2022/03/15 07:15:24;;;;;;;12.68;10.32;;;1.50;99.90;;;;;;5011262;28;20029;-55
2022/03/15 07:17:54;;;;;;;10.38;9.38;;;1.60;99.90;;;;;;5010928;28;20022;-55
2022/03/15 07:20:21;;;;;;;10.00;9.02;;;1.80;99.90;;;;;;5012459;28;20679;-55
2022/03/15 07:22:47;;;;;;;10.93;8.75;;;1.80;99.90;;;;;;5010990;28;20573;-56
2022/03/15 07:25:13;;;;;;;9.60;8.45;;;1.90;99.90;;;;;;5011685;28;20030;-56
2022/03/15 07:27:39;;;;;;;11.45;8.57;;;1.80;99.90;;;;;;5010452;28;20107;-55
2022/03/15 07:30:06;;;;;;;15.05;9.43;;;1.90;99.90;;;;;;5026677;28;20473;-56
2022/03/15 07:32:32;;;;;;;16.90;11.90;;;2.10;99.90;;;;;;5011578;28;20037;-55
2022/03/15 07:34:58;;;;;;;9.00;8.10;;;2.20;99.90;;;;;;5011179;28;20017;-56
2022/03/15 07:37:23;;;;;;;10.48;9.18;;;2.40;99.90;;;;;;5011059;28;20026;-56
2022/03/15 07:39:49;;;;;;;11.52;8.98;;;2.60;99.90;;;;;;5025854;28;20038;-57
2022/03/15 07:42:15;;;;;;;10.18;8.38;;;2.80;99.90;;;;;;5010593;28;20032;-56
2022/03/15 07:44:42;;;;;;;11.70;10.50;;;3.00;99.90;;;;;;5011205;28;20030;-56
2022/03/15 07:47:10;;;;;;;9.38;8.27;;;3.20;99.90;;;;;;5012614;28;20056;-56
2022/03/15 07:49:36;;;;;;;8.25;7.50;;;3.40;99.90;;;;;;5010516;28;20038;-56
2022/03/15 07:52:02;;;;;;;8.57;7.45;;;3.60;99.90;;;;;;5010032;28;20040;-57
2022/03/15 07:54:28;;;;;;;9.52;8.00;;;3.60;99.90;;;;;;5010714;28;20018;-56
2022/03/15 07:56:54;;;;;;;10.98;8.43;;;3.70;99.90;;;;;;5008799;28;20029;-57
2022/03/15 07:59:19;;;;;;;11.45;9.52;;;3.80;99.90;;;;;;5009582;28;20116;-56
2022/03/15 08:01:45;;;;;;;10.25;7.70;;;4.00;99.90;;;;;;5008470;28;20042;-55
2022/03/15 08:04:11;;;;;;;9.43;7.30;;;4.00;99.90;;;;;;5010256;28;20044;-55
2022/03/15 08:06:36;;;;;;;11.07;8.18;;;4.20;99.90;;;;;;5007150;28;20046;-56
2022/03/15 08:09:05;;;;;;;13.20;9.10;;;4.40;99.90;;;;;;5007267;28;20022;-56
2022/03/15 08:11:32;;;;;;;17.73;13.15;;;4.50;99.90;;;;;;5008208;28;20025;-55
2022/03/15 08:13:58;;;;;;;22.10;13.10;;;4.60;99.90;;;;;;5007799;28;20026;-55
2022/03/15 08:16:24;;;;;;;26.80;15.07;;;4.70;99.90;;;;;;5009602;28;20060;-56
2022/03/15 08:18:51;;;;;;;22.15;12.32;;;4.80;99.90;;;;;;5009932;28;20103;-55
2022/03/15 08:21:17;;;;;;;10.85;9.75;;;4.90;99.90;;;;;;5009304;28;20018;-56
2022/03/15 08:23:44;;;;;;;11.43;8.40;;;5.00;99.90;;;;;;5009619;28;20044;-55
2022/03/15 08:26:10;;;;;;;8.68;7.78;;;5.20;99.90;;;;;;5008404;28;20586;-56
2022/03/15 08:28:36;;;;;;;9.48;8.55;;;5.30;99.90;;;;;;5009501;28;20034;-56
2022/03/15 08:31:02;;;;;;;9.43;8.13;;;5.50;99.90;;;;;;5008424;28;20041;-57
2022/03/15 08:33:27;;;;;;;8.93;8.00;;;5.70;99.90;;;;;;5009464;28;20022;-57
2022/03/15 08:35:53;;;;;;;9.25;7.28;;;5.80;99.90;;;;;;5009094;28;20022;-57
2022/03/15 08:38:19;;;;;;;8.90;7.85;;;5.90;99.90;;;;;;5009800;28;20029;-55
2022/03/15 08:40:44;;;;;;;9.13;8.18;;;6.10;99.90;;;;;;5009075;28;20100;-56
2022/03/15 08:43:10;;;;;;;12.43;7.93;;;6.10;99.90;;;;;;5008712;28;20039;-57
2022/03/15 08:45:36;;;;;;;10.65;9.55;;;6.20;99.90;;;;;;5009313;28;20030;-56
2022/03/15 08:48:03;;;;;;;14.95;11.32;;;6.20;99.90;;;;;;5008338;28;20489;-57
2022/03/15 08:50:29;;;;;;;13.23;9.73;;;6.20;99.90;;;;;;5009995;28;20022;-56
2022/03/15 08:52:55;;;;;;;11.30;9.10;;;6.30;99.90;;;;;;5008289;28;20029;-55
2022/03/15 08:55:22;;;;;;;10.60;9.63;;;6.30;99.90;;;;;;5007793;28;20029;-56
2022/03/15 08:57:48;;;;;;;10.18;8.98;;;6.30;99.90;;;;;;5009108;28;20037;-56
2022/03/15 09:00:15;;;;;;;11.90;10.70;;;6.40;99.90;;;;;;5008696;28;20496;-58
2022/03/15 09:02:41;;;;;;;12.70;9.93;;;6.50;99.90;;;;;;5009484;28;20033;-56
2022/03/15 09:05:07;;;;;;;10.95;9.93;;;6.60;99.90;;;;;;5008005;28;20112;-56
2022/03/15 09:07:36;;;;;;;10.48;9.38;;;6.60;99.90;;;;;;5008610;28;20062;-56
2022/03/15 09:10:02;;;;;;;11.10;9.43;;;6.60;99.90;;;;;;5008347;28;20034;-55
2022/03/15 09:12:28;;;;;;;10.80;9.77;;;6.70;99.90;;;;;;5009047;28;20157;-56
2022/03/15 09:14:54;;;;;;;12.50;10.05;;;6.70;99.90;;;;;;5008861;28;20422;-55
2022/03/15 09:17:19;;;;;;;11.27;10.07;;;6.80;99.90;;;;;;5009118;28;20477;-55
2022/03/15 09:19:45;;;;;;;15.85;12.65;;;7.00;99.90;;;;;;5009118;28;20026;-57
2022/03/15 09:22:11;;;;;;;14.32;12.93;;;7.10;99.90;;;;;;5007852;28;20112;-55
2022/03/15 09:24:37;;;;;;;9.98;8.98;;;7.40;99.90;;;;;;5009163;28;20061;-56
2022/03/15 09:27:04;;;;;;;13.70;9.75;;;7.40;99.90;;;;;;5008858;28;20028;-57
2022/03/15 09:29:31;;;;;;;11.50;10.40;;;7.40;99.90;;;;;;5024216;28;20030;-57
2022/03/15 09:31:56;;;;;;;10.13;9.13;;;7.70;99.90;;;;;;5008334;28;20026;-57
2022/03/15 09:34:22;;;;;;;11.75;10.55;;;7.60;99.90;;;;;;5007847;28;20034;-56
2022/03/15 09:36:51;;;;;;;12.38;9.93;;;7.60;99.90;;;;;;5007633;28;20479;-56
2022/03/15 09:39:18;;;;;;;10.60;9.50;;;7.80;99.90;;;;;;5007933;28;20441;-57
2022/03/15 09:41:49;;;;;;;10.32;9.38;;;7.90;99.90;;;;;;5008899;28;20366;-55
2022/03/15 09:44:17;;;;;;;9.80;8.90;;;8.00;99.90;;;;;;5008073;28;20033;-57
2022/03/15 09:46:50;;;;;;;11.35;9.27;;;8.00;99.90;;;;;;5008417;28;20535;-56
2022/03/15 09:49:18;;;;;;;8.25;7.55;;;8.20;99.90;;;;;;5006804;28;20121;-55
2022/03/15 09:51:45;;;;;;;10.00;8.40;;;8.30;99.90;;;;;;5007804;28;20672;-57
2022/03/15 09:54:13;;;;;;;10.38;9.57;;;8.30;99.90;;;;;;5008131;28;20124;-56
2022/03/15 09:56:39;;;;;;;12.48;8.43;;;8.50;99.90;;;;;;5008073;28;20049;-57
2022/03/15 09:59:16;;;;;;;9.38;8.13;;;8.60;99.90;;;;;;5008389;28;20501;-56
2022/03/15 10:01:44;;;;;;;8.40;7.57;;;8.70;99.90;;;;;;5006647;28;20085;-56
2022/03/15 10:04:10;;;;;;;11.65;8.95;;;8.70;99.90;;;;;;5008042;28;20370;-57
2022/03/15 10:06:37;;;;;;;10.25;9.05;;;8.80;99.90;;;;;;5007699;28;20030;-57
2022/03/15 10:09:04;;;;;;;8.95;8.07;;;8.80;99.90;;;;;;5008227;28;20054;-56
2022/03/15 10:11:29;;;;;;;6.90;6.30;;;8.90;99.90;;;;;;5008796;28;20389;-56
2022/03/15 10:13:55;;;;;;;7.80;7.00;;;9.00;99.90;;;;;;5007412;28;20029;-56
2022/03/15 10:16:29;;;;;;;9.02;6.05;;;9.20;99.90;;;;;;5009368;28;20049;-56
2022/03/15 10:18:57;;;;;;;6.22;5.60;;;9.30;99.20;;;;;;5011605;28;20031;-56
2022/03/15 10:21:25;;;;;;;5.95;4.95;;;9.50;99.90;;;;;;5011844;28;20030;-58
2022/03/15 10:23:55;;;;;;;5.07;4.55;;;9.70;97.00;;;;;;5011694;28;20080;-57
2022/03/15 10:26:23;;;;;;;7.40;5.28;;;9.90;95.60;;;;;;5013337;28;20026;-56
2022/03/15 10:28:49;;;;;;;5.22;4.72;;;10.00;95.30;;;;;;5011077;28;20036;-55
2022/03/15 10:31:16;;;;;;;5.60;4.85;;;10.00;95.60;;;;;;5011129;28;20034;-57
2022/03/15 10:33:42;;;;;;;5.40;4.90;;;10.00;94.80;;;;;;5012174;28;20030;-57
2022/03/15 10:36:19;;;;;;;5.68;4.80;;;10.00;95.50;;;;;;5010775;28;20037;-56
2022/03/15 10:38:51;;;;;;;6.05;4.80;;;9.90;94.50;;;;;;5012261;28;20088;-56
2022/03/15 10:41:17;;;;;;;6.10;4.75;;;9.90;95.40;;;;;;5010494;28;20401;-56
2022/03/15 10:43:43;;;;;;;5.82;5.32;;;9.80;94.70;;;;;;5011399;28;20034;-57
2022/03/15 10:46:12;;;;;;;7.47;5.47;;;9.60;95.50;;;;;;5011458;28;20521;-57
2022/03/15 10:48:38;;;;;;;9.02;6.25;;;9.50;97.00;;;;;;5011360;28;20104;-58
2022/03/15 10:51:11;;;;;;;7.38;6.68;;;9.40;98.20;;;;;;5011404;28;20104;-56
2022/03/15 10:53:38;;;;;;;6.97;5.97;;;9.20;97.90;;;;;;5011508;28;20041;-56
2022/03/15 10:56:20;;;;;;;5.97;5.43;;;9.10;98.70;;;;;;5011153;28;20493;-55
2022/03/15 10:58:45;;;;;;;;;;;9.10;99.90;;;;;;5011170;28;20109;-55
2022/03/15 11:01:12;;;;;;;7.22;5.35;;;9.00;99.90;;;;;;5011239;28;20004;-55
2022/03/15 11:03:37;;;;;;;7.65;6.00;;;9.10;99.90;;;;;;5025694;28;20057;-57
2022/03/15 11:06:08;;;;;;;7.35;5.68;;;9.20;99.90;;;;;;5011464;28;20452;-55
2022/03/15 11:08:37;;;;;;;6.43;5.82;;;9.10;99.90;;;;;;5010693;28;20112;-56
2022/03/15 11:11:06;;;;;;;6.20;5.60;;;9.30;99.90;;;;;;5011457;28;20088;-57
2022/03/15 11:13:32;;;;;;;6.78;5.78;;;9.40;99.90;;;;;;5010973;28;20057;-56
2022/03/15 11:15:59;;;;;;;5.53;5.03;;;9.40;99.50;;;;;;5009957;28;20063;-57
2022/03/15 11:18:30;;;;;;;8.07;5.68;;;9.60;99.90;;;;;;5010922;28;20022;-56
2022/03/15 11:20:58;;;;;;;10.50;5.25;;;9.90;98.80;;;;;;5010382;28;20029;-58
2022/03/15 11:23:25;;;;;;;5.18;4.68;;;10.20;98.50;;;;;;5011479;28;20140;-57
2022/03/15 11:26:09;;;;;;;8.13;5.18;;;10.50;98.90;;;;;;5025931;28;20049;-55
2022/03/15 11:28:39;;;;;;;7.03;5.20;;;10.70;95.40;;;;;;5008480;28;20030;-58
2022/03/15 11:31:06;;;;;;;8.55;5.40;;;10.60;96.10;;;;;;5011063;28;20107;-57
2022/03/15 11:33:31;;;;;;;5.90;5.30;;;10.70;95.70;;;;;;5010132;28;20044;-56
2022/03/15 11:36:02;;;;;;;6.60;6.00;;;10.70;95.50;;;;;;5009886;28;20461;-57
2022/03/15 11:38:28;;;;;;;6.55;5.90;;;10.90;96.30;;;;;;5010774;28;20048;-58
2022/03/15 11:40:55;;;;;;;7.53;5.90;;;11.10;95.60;;;;;;5010845;28;20026;-57
2022/03/15 11:43:40;;;;;;;7.50;5.35;;;11.40;95.40;;;;;;5008971;28;20034;-57
2022/03/15 11:46:13;;;;;;;6.88;5.85;;;11.40;94.50;;;;;;5001651;28;20030;-56
2022/03/15 11:48:49;;;;;;;7.80;6.78;;;11.40;94.30;;;;;;5009819;28;20038;-58
2022/03/15 11:51:45;;;;;;;6.72;6.13;;;11.40;94.40;;;;;;5010469;28;20096;-55
2022/03/15 11:54:49;;;;;;;7.97;6.05;;;11.50;94.80;;;;;;5002705;28;20064;-56
2022/03/15 11:57:24;;;;;;;8.80;6.38;;;11.30;94.40;;;;;;4968430;28;20035;-57
2022/03/15 11:59:52;;;;;;;8.23;5.90;;;11.20;95.30;;;;;;5003766;28;20139;-56
2022/03/15 12:02:41;;;;;;;6.95;6.35;;;11.20;95.70;;;;;;5009976;28;20450;-58
2022/03/15 12:05:18;;;;;;;9.32;7.03;;;11.30;96.60;;;;;;5009363;28;20037;-56
2022/03/15 12:07:46;;;;;;;9.07;8.18;;;11.40;96.40;;;;;;5005668;28;20052;-56
2022/03/15 12:10:37;;;;;;;7.32;6.63;;;11.50;96.60;;;;;;5009748;28;20041;-57
2022/03/15 12:13:05;;;;;;;14.77;7.05;;;11.60;95.60;;;;;;5008664;28;20069;-56
2022/03/15 12:15:39;;;;;;;6.45;5.85;;;11.70;95.60;;;;;;5009766;28;20125;-57
2022/03/15 12:21:07;;;;;;;7.75;6.65;;;11.80;95.10;;;;;;5010238;28;20440;-56
2022/03/15 12:23:43;;;;;;;6.35;5.82;;;11.80;95.80;;;;;;5008595;28;20038;-57
2022/03/15 12:26:26;;;;;;;7.60;6.18;;;11.90;94.90;;;;;;4984016;28;20031;-55
2022/03/15 12:28:57;;;;;;;8.15;5.93;;;12.00;94.60;;;;;;4988407;28;20027;-58
2022/03/15 12:31:38;;;;;;;6.63;5.87;;;12.10;94.80;;;;;;5002305;28;20124;-57
2022/03/15 12:34:12;;;;;;;12.27;5.72;;;12.00;93.70;;;;;;4998434;28;20041;-56
2022/03/15 12:36:51;;;;;;;7.97;6.43;;;12.00;93.50;;;;;;4996062;28;20470;-57
2022/03/15 12:39:22;;;;;;;6.43;5.55;;;12.00;93.90;;;;;;5004120;28;20430;-55